createdAt,value
2022-09-23T00:01:20.857Z,9.22
2022-09-23T00:03:49.381Z,9.14
2022-09-23T00:06:20.680Z,9.14
2022-09-23T00:08:52.597Z,9.14
2022-09-23T00:11:27.815Z,9.13
2022-09-23T00:13:57.685Z,9.11
2022-09-23T00:16:32.754Z,9.09
2022-09-23T00:19:02.666Z,9.02
2022-09-23T00:21:30.058Z,9.11
2022-09-23T00:23:57.442Z,9.18
2022-09-23T00:26:24.982Z,9.25
2022-09-23T00:28:52.635Z,9.23
2022-09-23T00:31:22.787Z,9.10
2022-09-23T00:34:01.806Z,8.96
2022-09-23T00:36:30.759Z,8.79
2022-09-23T00:38:58.831Z,8.79
2022-09-23T00:41:26.845Z,8.82
2022-09-23T00:44:00.161Z,8.77
2022-09-23T00:46:37.999Z,8.70
2022-09-23T00:49:09.638Z,8.53
2022-09-23T00:51:43.578Z,8.63
2022-09-23T00:54:11.576Z,8.62
2022-09-23T00:56:40.020Z,8.70
2022-09-23T00:59:09.783Z,8.68
2022-09-23T01:01:37.954Z,8.67
2022-09-23T01:04:06.887Z,8.64
2022-09-23T01:06:34.010Z,8.64
2022-09-23T01:09:01.451Z,8.60
2022-09-23T01:11:38.163Z,8.56
2022-09-23T01:14:32.261Z,8.52
2022-09-23T01:17:11.157Z,8.54
2022-09-23T01:19:47.172Z,8.55
2022-09-23T01:22:32.378Z,8.51
2022-09-23T01:25:24.202Z,8.49
2022-09-23T01:28:00.327Z,8.34
2022-09-23T01:30:36.285Z,8.36
2022-09-23T01:33:24.644Z,8.32
2022-09-23T01:36:09.702Z,8.08
2022-09-23T01:38:43.572Z,8.31
2022-09-23T01:41:55.439Z,8.29
2022-09-23T01:44:31.037Z,8.36
2022-09-23T01:47:14.518Z,8.30
2022-09-23T01:49:57.988Z,8.23
2022-09-23T01:52:32.800Z,8.15
2022-09-23T01:55:12.119Z,7.96
2022-09-23T01:57:55.186Z,8.11
2022-09-23T02:00:23.689Z,8.11
2022-09-23T02:02:59.997Z,8.06
2022-09-23T02:05:52.128Z,8.05
2022-09-23T02:09:00.446Z,8.07
2022-09-23T02:11:28.677Z,8.10
2022-09-23T02:14:08.009Z,8.29
2022-09-23T02:16:40.098Z,8.31
2022-09-23T02:19:27.963Z,8.25
2022-09-23T02:22:08.855Z,8.17
2022-09-23T02:24:38.914Z,8.07
2022-09-23T02:27:15.782Z,8.18
2022-09-23T02:30:11.999Z,7.80
2022-09-23T02:32:54.966Z,8.03
2022-09-23T02:35:29.349Z,7.98
2022-09-23T02:38:26.745Z,8.07
2022-09-23T02:41:20.647Z,8.28
2022-09-23T02:44:14.295Z,8.34
2022-09-23T02:46:44.657Z,8.11
2022-09-23T02:49:23.261Z,8.19
2022-09-23T02:51:51.512Z,8.13
2022-09-23T02:54:22.332Z,8.12
2022-09-23T02:56:49.717Z,8.20
2022-09-23T02:59:19.693Z,8.17
2022-09-23T03:02:14.462Z,8.24
2022-09-23T03:04:44.604Z,8.20
2022-09-23T03:07:21.191Z,8.18
2022-09-23T03:09:48.452Z,8.23
2022-09-23T03:12:31.883Z,8.16
2022-09-23T03:15:12.372Z,8.31
2022-09-23T03:17:49.989Z,8.34
2022-09-23T03:20:31.313Z,8.45
2022-09-23T03:23:09.626Z,8.53
2022-09-23T03:25:43.501Z,8.51
2022-09-23T03:28:12.155Z,8.59
2022-09-23T03:30:40.636Z,8.67
2022-09-23T03:33:12.214Z,8.71
2022-09-23T03:36:01.756Z,8.66
2022-09-23T03:38:35.264Z,8.74
2022-09-23T03:41:04.343Z,8.88
2022-09-23T03:43:35.283Z,8.85
2022-09-23T03:46:08.262Z,9.36
2022-09-23T03:48:35.604Z,9.53
2022-09-23T03:51:17.914Z,9.45
2022-09-23T03:53:44.960Z,9.43
2022-09-23T03:56:12.060Z,9.50
2022-09-23T03:58:39.194Z,9.49
2022-09-23T04:01:06.346Z,9.33
2022-09-23T04:03:33.600Z,9.08
2022-09-23T04:06:01.103Z,9.08
2022-09-23T04:08:28.450Z,8.82
2022-09-23T04:11:01.041Z,8.51
2022-09-23T04:13:29.467Z,8.36
2022-09-23T04:15:56.692Z,8.28
2022-09-23T04:18:25.145Z,8.19
2022-09-23T04:20:56.694Z,8.31
2022-09-23T04:23:25.138Z,8.20
2022-09-23T04:25:52.590Z,8.22
2022-09-23T04:28:20.123Z,8.23
2022-09-23T04:30:49.015Z,8.19
2022-09-23T04:33:17.001Z,8.15
2022-09-23T04:35:44.289Z,7.94
2022-09-23T04:38:12.730Z,8.14
2022-09-23T04:40:40.132Z,8.20
2022-09-23T04:43:10.600Z,8.25
2022-09-23T04:45:40.530Z,8.16
2022-09-23T04:48:09.620Z,8.16
2022-09-23T04:50:37.739Z,8.20
2022-09-23T04:53:05.752Z,8.17
2022-09-23T04:55:32.909Z,8.15
2022-09-23T04:58:00.165Z,8.27
2022-09-23T05:00:28.826Z,8.39
2022-09-23T05:02:56.055Z,8.32
2022-09-23T05:05:24.511Z,8.48
2022-09-23T05:07:51.978Z,8.54
2022-09-23T05:10:19.245Z,8.47
2022-09-23T05:12:46.372Z,8.73
2022-09-23T05:15:16.490Z,8.89
2022-09-23T05:17:43.865Z,9.01
2022-09-23T05:20:11.702Z,9.26
2022-09-23T05:22:38.827Z,9.45
2022-09-23T05:25:06.313Z,9.66
2022-09-23T05:27:33.934Z,9.81
2022-09-23T05:30:01.571Z,10.07
2022-09-23T05:32:31.397Z,10.16
2022-09-23T05:34:58.620Z,10.36
2022-09-23T05:37:25.670Z,10.42
2022-09-23T05:39:52.918Z,10.42
2022-09-23T05:42:21.042Z,10.37
2022-09-23T05:44:48.319Z,10.45
2022-09-23T05:47:15.585Z,10.42
2022-09-23T05:49:58.983Z,10.33
2022-09-23T05:52:27.480Z,10.11
2022-09-23T05:54:54.634Z,10.23
2022-09-23T05:57:22.010Z,10.27
2022-09-23T05:59:49.295Z,10.50
2022-09-23T06:02:16.434Z,10.82
2022-09-23T06:04:44.060Z,11.02
2022-09-23T06:07:11.822Z,11.22
2022-09-23T06:09:39.070Z,11.50
2022-09-23T06:12:06.553Z,11.71
2022-09-23T06:14:33.878Z,11.99
2022-09-23T06:17:01.008Z,11.94
2022-09-23T06:19:28.643Z,11.82
2022-09-23T06:21:55.759Z,11.68
2022-09-23T06:24:25.896Z,11.77
2022-09-23T06:26:55.948Z,11.73
2022-09-23T06:29:23.497Z,11.86
2022-09-23T06:31:50.876Z,11.87
2022-09-23T06:34:18.462Z,12.03
2022-09-23T06:36:46.741Z,12.20
2022-09-23T06:39:15.598Z,12.28
2022-09-23T06:41:43.964Z,12.36
2022-09-23T06:44:15.224Z,12.47
2022-09-23T06:46:42.882Z,12.58
2022-09-23T06:49:13.494Z,12.68
2022-09-23T06:51:41.251Z,12.82
2022-09-23T06:54:08.686Z,12.87
2022-09-23T06:56:39.194Z,13.12
2022-09-23T06:59:10.751Z,13.06
2022-09-23T07:01:38.396Z,13.11
2022-09-23T07:04:07.481Z,13.28
2022-09-23T07:06:35.197Z,13.35
2022-09-23T07:09:03.309Z,13.37
2022-09-23T07:11:30.638Z,13.60
2022-09-23T07:13:57.967Z,13.67
2022-09-23T07:16:25.964Z,13.83
2022-09-23T07:18:53.710Z,13.80
2022-09-23T07:21:20.747Z,13.86
2022-09-23T07:23:52.126Z,13.94
2022-09-23T07:26:22.953Z,14.04
2022-09-23T07:28:59.030Z,14.00
2022-09-23T07:31:36.859Z,14.04
2022-09-23T07:34:08.534Z,13.88
2022-09-23T07:36:37.634Z,13.95
2022-09-23T07:39:05.433Z,13.95
2022-09-23T07:41:34.062Z,13.99
2022-09-23T07:44:03.046Z,14.04
2022-09-23T07:46:32.974Z,14.10
2022-09-23T07:49:02.206Z,14.21
2022-09-23T07:51:36.070Z,14.21
2022-09-23T07:54:10.933Z,14.24
2022-09-23T07:56:38.934Z,14.33
2022-09-23T07:59:09.144Z,14.26
2022-09-23T08:01:41.221Z,14.41
2022-09-23T08:04:18.222Z,14.54
2022-09-23T08:06:48.675Z,14.68
2022-09-23T08:09:18.014Z,14.54
2022-09-23T08:11:45.646Z,14.65
2022-09-23T08:14:14.484Z,14.92
2022-09-23T08:16:42.871Z,15.12
2022-09-23T08:19:10.424Z,15.29
2022-09-23T08:21:39.579Z,15.33
2022-09-23T08:24:08.931Z,15.44
2022-09-23T08:26:36.686Z,15.50
2022-09-23T08:29:05.430Z,15.64
2022-09-23T08:31:32.913Z,15.65
2022-09-23T08:34:00.319Z,15.73
2022-09-23T08:36:27.756Z,15.97
2022-09-23T08:38:55.480Z,16.18
2022-09-23T08:41:49.717Z,16.33
2022-09-23T08:44:25.199Z,16.36
2022-09-23T08:47:13.775Z,16.47
2022-09-23T08:49:50.321Z,16.42
2022-09-23T08:52:36.451Z,16.52
2022-09-23T08:55:05.013Z,16.56
2022-09-23T08:57:42.612Z,16.53
2022-09-23T09:00:29.743Z,16.28
2022-09-23T09:02:57.251Z,16.27
2022-09-23T09:05:27.849Z,16.36
2022-09-23T09:08:00.445Z,16.04
2022-09-23T09:10:38.016Z,16.05
2022-09-23T09:13:25.461Z,16.21
2022-09-23T09:16:48.374Z,16.37
2022-09-23T09:19:40.711Z,16.61
2022-09-23T09:22:13.995Z,16.59
2022-09-23T09:24:45.961Z,16.50
2022-09-23T09:27:13.790Z,16.44
2022-09-23T09:29:49.973Z,16.60
2022-09-23T09:32:30.121Z,16.73
2022-09-23T09:35:05.912Z,16.83
2022-09-23T09:37:47.622Z,16.68
2022-09-23T09:40:21.022Z,16.79
2022-09-23T09:42:50.826Z,16.73
2022-09-23T09:45:40.993Z,16.66
2022-09-23T09:48:39.288Z,16.47
2022-09-23T09:51:30.295Z,16.49
2022-09-23T09:54:23.854Z,16.48
2022-09-23T09:56:52.079Z,16.55
2022-09-23T09:59:29.044Z,16.60
2022-09-23T10:02:21.617Z,16.71
2022-09-23T10:05:19.170Z,16.95
2022-09-23T10:07:46.351Z,17.23
2022-09-23T10:10:32.506Z,17.21
2022-09-23T10:13:16.177Z,17.25
2022-09-23T10:15:45.550Z,17.27
2022-09-23T10:18:20.301Z,17.07
2022-09-23T10:20:48.602Z,17.21
2022-09-23T10:23:26.932Z,17.32
2022-09-23T10:26:00.344Z,17.46
2022-09-23T10:28:33.379Z,17.39
2022-09-23T10:31:05.787Z,17.38
2022-09-23T10:33:33.128Z,17.38
2022-09-23T10:36:00.336Z,17.62
2022-09-23T10:38:27.659Z,17.61
2022-09-23T10:41:15.253Z,17.60
2022-09-23T10:44:28.442Z,17.41
2022-09-23T10:47:56.461Z,17.01
2022-09-23T10:50:46.144Z,16.77
2022-09-23T10:53:32.911Z,16.68
2022-09-23T10:56:18.756Z,16.81
2022-09-23T10:58:59.743Z,16.94
2022-09-23T11:01:59.375Z,17.13
2022-09-23T11:04:45.277Z,17.21
2022-09-23T11:07:14.460Z,17.35
2022-09-23T11:10:42.288Z,17.27
2022-09-23T11:13:32.085Z,17.38
2022-09-23T11:16:11.301Z,17.49
2022-09-23T11:18:44.442Z,17.55
2022-09-23T11:21:39.567Z,17.43
2022-09-23T11:24:48.981Z,17.42
2022-09-23T11:27:28.194Z,17.22
2022-09-23T11:30:13.406Z,17.20
2022-09-23T11:33:04.592Z,17.39
2022-09-23T11:35:46.364Z,17.51
2022-09-23T11:38:36.701Z,17.69
2022-09-23T11:41:28.799Z,17.55
2022-09-23T11:44:19.545Z,17.60
2022-09-23T11:47:03.572Z,17.87
2022-09-23T11:49:40.265Z,18.15
2022-09-23T11:52:20.893Z,18.41
2022-09-23T11:55:17.693Z,18.36
2022-09-23T11:58:22.399Z,18.62
2022-09-23T12:01:01.430Z,18.68
2022-09-23T12:03:49.176Z,18.94
2022-09-23T12:06:36.970Z,19.04
2022-09-23T12:09:54.114Z,19.20
2022-09-23T12:12:49.968Z,19.18
2022-09-23T12:15:50.611Z,19.30
2022-09-23T12:18:36.105Z,18.98
2022-09-23T12:21:46.212Z,19.25
2022-09-23T12:24:35.565Z,18.94
2022-09-23T12:27:09.292Z,18.91
2022-09-23T12:29:39.887Z,18.10
2022-09-23T12:32:10.164Z,17.76
2022-09-23T12:34:49.060Z,16.99
2022-09-23T12:37:34.199Z,16.78
2022-09-23T12:40:44.092Z,16.22
2022-09-23T12:43:29.805Z,15.50
2022-09-23T12:46:28.301Z,14.67
2022-09-23T12:48:57.514Z,14.27
2022-09-23T12:51:26.267Z,14.14
2022-09-23T12:53:54.190Z,14.08
2022-09-23T12:56:45.033Z,14.14
2022-09-23T12:59:29.216Z,14.29
2022-09-23T13:01:57.119Z,14.36
2022-09-23T13:04:53.505Z,14.42
2022-09-23T13:07:27.699Z,14.57
2022-09-23T13:10:38.665Z,14.55
2022-09-23T13:13:07.433Z,14.79
2022-09-23T13:15:36.796Z,14.98
2022-09-23T13:18:19.294Z,15.14
2022-09-23T13:20:52.356Z,15.19
2022-09-23T13:23:26.852Z,15.45
2022-09-23T13:26:09.021Z,15.55
2022-09-23T13:28:55.072Z,15.77
2022-09-23T13:31:22.313Z,15.96
2022-09-23T13:33:54.874Z,15.90
2022-09-23T13:36:22.207Z,15.91
2022-09-23T13:38:49.607Z,15.90
2022-09-23T13:41:26.937Z,16.04
2022-09-23T13:43:58.662Z,16.21
2022-09-23T13:46:31.465Z,16.25
2022-09-23T13:48:59.017Z,16.34
2022-09-23T13:51:33.486Z,16.37
2022-09-23T13:54:03.088Z,16.38
2022-09-23T13:56:33.080Z,16.44
2022-09-23T13:59:19.223Z,16.49
2022-09-23T14:01:47.282Z,16.54
2022-09-23T14:04:25.609Z,16.58
2022-09-23T14:06:54.561Z,16.78
2022-09-23T14:09:27.522Z,16.90
2022-09-23T14:12:00.004Z,16.88
2022-09-23T14:14:29.779Z,16.96
2022-09-23T14:16:58.144Z,16.92
2022-09-23T14:19:26.569Z,17.16
2022-09-23T14:21:56.378Z,17.18
2022-09-23T14:24:30.411Z,17.13
2022-09-23T14:27:06.778Z,17.12
2022-09-23T14:29:43.695Z,17.08
2022-09-23T14:32:26.994Z,17.05
2022-09-23T14:35:00.357Z,16.96
2022-09-23T14:37:52.043Z,17.09
2022-09-23T14:40:20.723Z,17.00
2022-09-23T14:42:55.859Z,16.94
2022-09-23T14:45:26.564Z,16.75
2022-09-23T14:48:24.266Z,16.73
2022-09-23T14:50:56.868Z,16.72
2022-09-23T14:53:32.627Z,16.69
2022-09-23T14:56:10.969Z,16.68
2022-09-23T14:58:57.351Z,16.62
2022-09-23T15:01:39.215Z,16.60
2022-09-23T15:04:15.726Z,16.69
2022-09-23T15:06:56.671Z,16.59
2022-09-23T15:09:31.569Z,16.57
2022-09-23T15:12:03.244Z,16.64
2022-09-23T15:14:38.776Z,16.58
2022-09-23T15:17:17.178Z,16.56
2022-09-23T15:19:46.550Z,16.50
2022-09-23T15:22:16.726Z,16.45
2022-09-23T15:24:45.547Z,16.44
2022-09-23T15:27:30.567Z,16.33
2022-09-23T15:30:19.769Z,16.29
2022-09-23T15:32:47.470Z,16.24
2022-09-23T15:35:18.894Z,16.19
2022-09-23T15:37:47.060Z,16.03
2022-09-23T15:40:23.187Z,16.03
2022-09-23T15:42:52.784Z,15.98
2022-09-23T15:45:26.430Z,15.90
2022-09-23T15:47:53.880Z,15.85
2022-09-23T15:50:21.035Z,15.81
2022-09-23T15:52:48.317Z,15.76
2022-09-23T15:55:18.341Z,15.75
2022-09-23T15:57:45.481Z,15.71
2022-09-23T16:00:13.619Z,15.68
2022-09-23T16:02:43.323Z,15.67
2022-09-23T16:05:22.309Z,15.56
2022-09-23T16:07:52.463Z,15.49
2022-09-23T16:10:21.570Z,15.38
2022-09-23T16:12:49.806Z,15.27
2022-09-23T16:15:19.598Z,15.17
2022-09-23T16:17:46.912Z,15.08
2022-09-23T16:20:17.963Z,15.06
2022-09-23T16:22:54.737Z,14.94
2022-09-23T16:25:28.279Z,14.87
2022-09-23T16:27:56.647Z,14.69
2022-09-23T16:30:26.153Z,14.68
2022-09-23T16:32:53.819Z,14.67
2022-09-23T16:35:22.931Z,14.67
2022-09-23T16:37:51.258Z,14.64
2022-09-23T16:40:29.465Z,14.59
2022-09-23T16:42:58.520Z,14.54
2022-09-23T16:45:25.757Z,14.51
2022-09-23T16:47:53.109Z,14.41
2022-09-23T16:50:25.078Z,14.42
2022-09-23T16:52:56.241Z,14.33
2022-09-23T16:55:25.813Z,14.27
2022-09-23T16:57:54.092Z,14.21
2022-09-23T17:00:40.088Z,14.20
2022-09-23T17:03:25.808Z,14.08
2022-09-23T17:05:54.508Z,14.01
2022-09-23T17:08:21.788Z,13.96
2022-09-23T17:10:57.152Z,13.84
2022-09-23T17:13:29.216Z,13.81
2022-09-23T17:15:57.782Z,13.73
2022-09-23T17:18:25.433Z,13.66
2022-09-23T17:21:10.995Z,13.61
2022-09-23T17:23:38.320Z,13.54
2022-09-23T17:26:09.831Z,13.54
2022-09-23T17:28:38.322Z,13.52
2022-09-23T17:31:06.564Z,13.47
2022-09-23T17:33:37.783Z,13.48
2022-09-23T17:36:13.257Z,13.35
2022-09-23T17:38:43.378Z,13.34
2022-09-23T17:41:11.881Z,13.30
2022-09-23T17:43:39.852Z,13.22
2022-09-23T17:46:12.932Z,13.22
2022-09-23T17:48:42.255Z,13.25
2022-09-23T17:51:19.932Z,13.19
2022-09-23T17:53:48.581Z,13.18
2022-09-23T17:56:26.957Z,13.05
2022-09-23T17:58:54.714Z,13.00
2022-09-23T18:01:26.830Z,12.96
2022-09-23T18:03:59.576Z,12.95
2022-09-23T18:06:28.939Z,12.83
2022-09-23T18:08:56.190Z,12.78
2022-09-23T18:11:26.092Z,12.83
2022-09-23T18:13:55.594Z,12.78
2022-09-23T18:16:25.778Z,12.69
2022-09-23T18:18:54.904Z,12.65
2022-09-23T18:21:23.124Z,12.62
2022-09-23T18:23:51.431Z,12.58
2022-09-23T18:26:24.387Z,12.40
2022-09-23T18:28:53.747Z,12.44
2022-09-23T18:31:20.991Z,12.48
2022-09-23T18:33:51.940Z,12.38
2022-09-23T18:36:23.531Z,12.33
2022-09-23T18:38:51.467Z,12.28
2022-09-23T18:41:19.141Z,12.22
2022-09-23T18:43:48.712Z,12.09
2022-09-23T18:46:18.783Z,12.02
2022-09-23T18:49:21.651Z,11.92
2022-09-23T18:51:55.783Z,11.76
2022-09-23T18:54:32.562Z,11.78
2022-09-23T18:57:00.224Z,11.73
2022-09-23T18:59:29.826Z,11.69
2022-09-23T19:01:57.702Z,11.66
2022-09-23T19:04:26.541Z,11.66
2022-09-23T19:06:56.674Z,11.55
2022-09-23T19:09:25.198Z,11.53
2022-09-23T19:11:53.470Z,11.48
2022-09-23T19:14:22.402Z,11.39
2022-09-23T19:16:50.598Z,11.22
2022-09-23T19:19:17.789Z,11.13
2022-09-23T19:21:45.911Z,11.09
2022-09-23T19:24:20.165Z,11.01
2022-09-23T19:26:48.566Z,11.03
2022-09-23T19:29:19.891Z,10.98
2022-09-23T19:31:47.091Z,10.89
2022-09-23T19:34:23.131Z,10.84
2022-09-23T19:36:51.559Z,10.65
2022-09-23T19:39:22.884Z,10.85
2022-09-23T19:41:55.884Z,10.60
2022-09-23T19:44:26.745Z,10.82
2022-09-23T19:46:57.079Z,10.69
2022-09-23T19:49:25.441Z,10.75
2022-09-23T19:51:55.688Z,10.67
2022-09-23T19:54:26.622Z,10.60
2022-09-23T19:56:53.994Z,10.57
2022-09-23T19:59:21.168Z,10.44
2022-09-23T20:01:48.553Z,10.54
2022-09-23T20:04:16.337Z,10.58
2022-09-23T20:06:43.727Z,10.60
2022-09-23T20:09:10.856Z,10.63
2022-09-23T20:11:38.121Z,10.61
2022-09-23T20:14:06.601Z,10.51
2022-09-23T20:16:35.947Z,10.45
2022-09-23T20:19:04.412Z,10.41
2022-09-23T20:21:33.661Z,10.35
2022-09-23T20:24:02.079Z,10.36
2022-09-23T20:26:47.716Z,10.43
2022-09-23T20:29:15.596Z,10.35
2022-09-23T20:31:43.084Z,10.34
2022-09-23T20:34:11.224Z,10.21
2022-09-23T20:36:41.011Z,10.25
2022-09-23T20:39:10.168Z,10.29
2022-09-23T20:41:39.344Z,10.30
2022-09-23T20:44:12.787Z,10.10
2022-09-23T20:46:47.917Z,10.25
2022-09-23T20:49:19.725Z,10.22
2022-09-23T20:51:50.830Z,10.32
2022-09-23T20:54:21.005Z,10.28
2022-09-23T20:56:48.352Z,10.34
2022-09-23T20:59:17.953Z,10.28
2022-09-23T21:01:45.472Z,10.31
2022-09-23T21:04:12.786Z,10.35
2022-09-23T21:06:40.155Z,10.45
2022-09-23T21:09:07.306Z,10.33
2022-09-23T21:11:34.827Z,10.31
2022-09-23T21:14:02.169Z,10.32
2022-09-23T21:16:29.957Z,10.42
2022-09-23T21:18:58.242Z,10.44
2022-09-23T21:21:25.799Z,10.42
2022-09-23T21:23:52.928Z,10.41
2022-09-23T21:26:23.324Z,10.40
2022-09-23T21:28:53.073Z,10.40
2022-09-23T21:31:26.162Z,10.24
2022-09-23T21:34:04.368Z,10.40
2022-09-23T21:36:34.662Z,10.29
2022-09-23T21:39:03.148Z,10.33
2022-09-23T21:41:31.131Z,10.28
2022-09-23T21:43:59.408Z,10.29
2022-09-23T21:46:28.324Z,10.32
2022-09-23T21:48:57.514Z,10.24
2022-09-23T21:51:27.122Z,9.95
2022-09-23T21:53:56.886Z,10.19
2022-09-23T21:56:27.298Z,10.06
2022-09-23T21:58:55.670Z,10.10
2022-09-23T22:01:29.017Z,10.08
2022-09-23T22:03:58.357Z,10.11
2022-09-23T22:06:27.655Z,10.11
2022-09-23T22:09:02.037Z,10.03
2022-09-23T22:11:51.626Z,9.93
2022-09-23T22:14:20.478Z,9.82
2022-09-23T22:16:47.646Z,9.76
2022-09-23T22:19:15.731Z,9.79
2022-09-23T22:21:45.170Z,9.86
2022-09-23T22:24:13.316Z,9.79
2022-09-23T22:26:44.872Z,9.86
2022-09-23T22:29:32.724Z,9.92
2022-09-23T22:32:20.289Z,9.94
2022-09-23T22:34:51.173Z,9.87
2022-09-23T22:37:21.822Z,9.71
2022-09-23T22:39:49.016Z,9.74
2022-09-23T22:42:16.373Z,9.79
2022-09-23T22:44:43.558Z,9.78
2022-09-23T22:47:11.008Z,9.80
2022-09-23T22:49:38.239Z,9.72
2022-09-23T22:52:08.461Z,9.74
2022-09-23T22:54:36.039Z,9.72
2022-09-23T22:57:07.853Z,9.67
2022-09-23T22:59:35.930Z,9.67
2022-09-23T23:02:03.705Z,9.71
2022-09-23T23:04:31.094Z,9.74
2022-09-23T23:06:59.023Z,9.62
2022-09-23T23:09:26.506Z,9.66
2022-09-23T23:11:53.725Z,9.65
2022-09-23T23:14:21.452Z,9.68
2022-09-23T23:16:48.700Z,9.66
2022-09-23T23:19:17.720Z,9.67
2022-09-23T23:21:45.663Z,9.55
2022-09-23T23:24:21.883Z,9.45
2022-09-23T23:26:50.289Z,9.38
2022-09-23T23:29:19.256Z,9.37
2022-09-23T23:31:46.930Z,9.37
2022-09-23T23:34:17.269Z,9.44
2022-09-23T23:36:45.929Z,9.57
2022-09-23T23:39:13.802Z,9.52
2022-09-23T23:41:41.766Z,9.66
2022-09-23T23:44:09.488Z,9.76
2022-09-23T23:46:37.491Z,9.82
2022-09-23T23:49:05.093Z,9.91
2022-09-23T23:51:32.393Z,9.94
2022-09-23T23:53:59.913Z,10.03
2022-09-23T23:56:27.759Z,10.04
2022-09-23T23:58:56.878Z,10.03
